Time;durP1;ratioP1;P1;durP2;ratioP2;P2;SDS_P1;SDS_P2;PMS_P1;PMS_P2;Temp;Humidity;BMP_temperature;BMP_pressure;BME280_temperature;BME280_humidity;BME280_pressure;Samples;Min_cycle;Max_cycle;Signal;HPM_P1;HPM_P2
2022/02/15 00:00:11;;;;;;;11.20;7.67;;;7.70;46.70;;;;;;5000521;28;20232;-83
2022/02/15 00:02:38;;;;;;;10.97;7.97;;;7.70;40.80;;;;;;5000950;28;20471;-82
2022/02/15 00:05:05;;;;;;;9.23;7.43;;;7.70;51.80;;;;;;4999907;28;20458;-82
2022/02/15 00:07:35;;;;;;;10.03;7.17;;;7.40;99.90;;;;;;5000231;28;20256;-85
2022/02/15 00:10:01;;;;;;;13.50;7.60;;;7.70;56.70;;;;;;5000781;28;20544;-83
2022/02/15 00:12:28;;;;;;;9.13;7.83;;;7.70;55.60;;;;;;5000468;28;20522;-82
2022/02/15 00:14:55;;;;;;;12.20;8.00;;;7.70;73.60;;;;;;5000355;28;20792;-82
2022/02/15 00:17:21;;;;;;;10.45;8.02;;;7.70;95.60;;;;;;4999738;28;20449;-83
2022/02/15 00:19:48;;;;;;;12.75;7.93;;;7.70;65.40;;;;;;4999056;28;20256;-82
2022/02/15 00:22:15;;;;;;;9.48;7.22;;;7.70;99.90;;;;;;5000225;28;20627;-83
2022/02/15 00:24:44;;;;;;;13.50;9.60;;;7.70;76.00;;;;;;4999905;28;20205;-83
2022/02/15 00:27:10;;;;;;;11.23;7.70;;;7.70;96.60;;;;;;5007802;28;20215;-83
2022/02/15 00:29:37;;;;;;;15.00;8.35;;;7.50;99.90;;;;;;5018510;28;20190;-81
2022/02/15 00:32:04;;;;;;;11.53;7.90;;;7.60;99.90;;;;;;5018772;28;20227;-80
2022/02/15 00:34:33;;;;;;;11.35;8.52;;;7.60;99.90;;;;;;5018874;28;20445;-80
2022/02/15 00:36:59;;;;;;;10.82;8.15;;;7.50;99.90;;;;;;5018963;28;20185;-81
2022/02/15 00:39:26;;;;;;;13.25;8.93;;;7.70;99.90;;;;;;5018289;28;20220;-81
2022/02/15 00:41:54;;;;;;;12.15;8.13;;;7.60;99.90;;;;;;5018038;28;20204;-82
2022/02/15 00:44:21;;;;;;;10.40;7.72;;;7.60;99.90;;;;;;5013671;28;20259;-82
2022/02/15 00:46:48;;;;;;;13.25;8.63;;;7.60;99.90;;;;;;5000195;28;20212;-82
2022/02/15 00:49:14;;;;;;;16.37;9.97;;;7.60;99.90;;;;;;4999421;28;20231;-82
2022/02/15 00:51:41;;;;;;;16.13;10.20;;;7.60;99.90;;;;;;4998855;28;20538;-82
2022/02/15 00:54:08;;;;;;;12.88;8.00;;;7.60;99.90;;;;;;5000626;28;20484;-81
2022/02/15 00:56:35;;;;;;;10.05;8.15;;;7.50;99.90;;;;;;5003443;28;20205;-83
2022/02/15 00:59:03;;;;;;;8.40;7.35;;;7.50;99.90;;;;;;4997105;28;20244;-82
2022/02/15 01:01:29;;;;;;;10.55;7.78;;;7.40;99.90;;;;;;4997259;28;20268;-81
2022/02/15 01:03:56;;;;;;;10.93;8.57;;;7.40;99.90;;;;;;4997753;28;20197;-83
2022/02/15 01:06:22;;;;;;;10.05;7.32;;;7.40;1.00;;;;;;4997896;28;20216;-83
2022/02/15 01:08:49;;;;;;;11.03;7.60;;;7.40;99.90;;;;;;4998411;28;20236;-83
2022/02/15 01:11:16;;;;;;;9.45;6.95;;;7.40;99.90;;;;;;4999170;28;20482;-83
2022/02/15 01:13:43;;;;;;;9.18;6.90;;;7.40;99.90;;;;;;4999657;28;20229;-82
2022/02/15 01:16:12;;;;;;;8.13;7.20;;;7.40;99.90;;;;;;4999556;28;20298;-81
2022/02/15 01:18:39;;;;;;;10.70;7.35;;;7.40;99.90;;;;;;5006709;28;20185;-81
2022/02/15 01:21:05;;;;;;;10.77;6.97;;;7.40;99.90;;;;;;5016805;28;20220;-80
2022/02/15 01:23:32;;;;;;;7.80;6.90;;;7.40;99.90;;;;;;5016727;28;20248;-82
2022/02/15 01:25:59;;;;;;;9.80;7.68;;;7.40;99.90;;;;;;5004321;28;20204;-82
2022/02/15 01:28:26;;;;;;;8.32;7.53;;;7.40;1.00;;;;;;5000641;28;20623;-82
2022/02/15 01:30:52;;;;;;;12.73;6.15;;;7.40;1.00;;;;;;5018280;28;20232;-82
2022/02/15 01:33:20;;;;;;;10.20;6.95;;;7.40;1.00;;;;;;5019179;28;20252;-82
2022/02/15 01:35:47;;;;;;;16.23;7.32;;;7.30;1.00;;;;;;5019464;28;20208;-82
2022/02/15 01:38:13;;;;;;;8.48;6.72;;;7.30;1.00;;;;;;5019735;28;20208;-82
2022/02/15 01:40:40;;;;;;;11.00;7.40;;;7.30;1.00;;;;;;5019698;28;20220;-82
2022/02/15 01:43:07;;;;;;;7.53;6.53;;;7.30;1.00;;;;;;5018920;28;20463;-82
2022/02/15 01:45:34;;;;;;;9.63;7.53;;;7.30;1.00;;;;;;5012647;28;20204;-83
2022/02/15 01:48:00;;;;;;;8.07;7.00;;;7.30;1.00;;;;;;5003923;28;20688;-83
2022/02/15 01:50:28;;;;;;;12.38;8.15;;;7.20;1.00;;;;;;5002910;28;20291;-82
2022/02/15 01:52:55;;;;;;;12.15;7.80;;;7.30;1.00;;;;;;5003044;28;20666;-82
2022/02/15 01:55:21;;;;;;;8.38;7.05;;;7.20;99.90;;;;;;5003123;28;20244;-82
2022/02/15 01:57:48;;;;;;;13.02;7.20;;;7.30;99.90;;;;;;5003386;28;20205;-82
2022/02/15 02:00:19;;;;;;;7.07;6.37;;;7.20;99.90;;;;;;5002543;28;20252;-82
2022/02/15 02:02:46;;;;;;;9.93;7.90;;;7.20;99.90;;;;;;5003097;28;20409;-82
2022/02/15 02:07:59;;;;;;;11.55;7.15;;;7.20;1.00;;;;;;5001959;28;20426;-82
2022/02/15 02:10:26;;;;;;;8.57;7.05;;;7.10;1.00;;;;;;5002376;28;20671;-82
2022/02/15 02:12:53;;;;;;;9.65;7.20;;;7.10;1.00;;;;;;5010186;28;20252;-82
2022/02/15 02:15:22;;;;;;;7.82;7.00;;;7.10;58.70;;;;;;5018009;28;20199;-82
2022/02/15 02:17:51;;;;;;;8.85;6.65;;;7.00;1.00;;;;;;5018288;28;20209;-83
2022/02/15 02:20:18;;;;;;;9.03;8.17;;;7.00;1.00;;;;;;5012244;28;20235;-83
2022/02/15 02:22:47;;;;;;;6.15;5.55;;;7.10;1.00;;;;;;5011032;28;20436;-83
2022/02/15 02:25:17;;;;;;;9.02;6.57;;;7.00;99.90;;;;;;5007806;28;20224;-83
2022/02/15 02:27:44;;;;;;;6.93;6.22;;;7.00;1.00;;;;;;5008436;28;20244;-82
2022/02/15 02:30:11;;;;;;;8.32;6.32;;;7.00;2.60;;;;;;5007261;28;20233;-83
2022/02/15 02:32:38;;;;;;;7.03;6.43;;;6.90;1.00;;;;;;5006747;28;20305;-83
2022/02/15 02:35:06;;;;;;;11.32;6.40;;;6.90;1.00;;;;;;5004960;28;20205;-82
2022/02/15 02:37:33;;;;;;;7.97;6.95;;;6.90;99.90;;;;;;5002788;28;20208;-83
2022/02/15 02:40:02;;;;;;;9.97;6.20;;;6.90;1.00;;;;;;5006542;28;20727;-83
2022/02/15 02:42:30;;;;;;;9.00;6.03;;;7.00;2.90;;;;;;5000453;28;20431;-83
2022/02/15 02:44:59;;;;;;;9.32;6.65;;;6.90;1.00;;;;;;5002770;28;20255;-83
2022/02/15 02:47:26;;;;;;;9.18;7.25;;;6.80;98.00;;;;;;5001582;28;20205;-83
2022/02/15 02:49:53;;;;;;;10.82;6.20;;;6.80;99.90;;;;;;5001155;28;20225;-83
2022/02/15 02:52:20;;;;;;;7.00;6.00;;;6.80;96.60;;;;;;5001055;28;20220;-83
2022/02/15 02:54:48;;;;;;;8.20;6.28;;;6.80;99.90;;;;;;5002546;28;20225;-83
2022/02/15 02:57:16;;;;;;;12.02;7.18;;;6.70;99.90;;;;;;5001242;28;20209;-82
2022/02/15 02:59:46;;;;;;;7.85;6.20;;;6.70;99.90;;;;;;5004295;28;20576;-82
2022/02/15 03:02:13;;;;;;;7.72;6.55;;;6.70;99.90;;;;;;5001715;28;20189;-82
2022/02/15 03:04:40;;;;;;;10.52;6.47;;;6.70;99.90;;;;;;5001959;28;20208;-83
2022/02/15 03:07:07;;;;;;;11.15;6.05;;;6.70;99.90;;;;;;5001149;28;20698;-83
2022/02/15 03:09:34;;;;;;;9.15;5.95;;;6.60;1.00;;;;;;5001436;28;20292;-82
2022/02/15 03:12:00;;;;;;;7.32;6.05;;;6.70;1.00;;;;;;5000865;28;20285;-82
2022/02/15 03:14:28;;;;;;;8.98;6.30;;;6.50;1.00;;;;;;5001428;28;20225;-82
2022/02/15 03:16:55;;;;;;;11.73;7.00;;;6.60;1.00;;;;;;5000183;28;20621;-82
2022/02/15 03:19:22;;;;;;;10.02;7.00;;;6.70;1.00;;;;;;5000072;28;20232;-82
2022/02/15 03:21:48;;;;;;;9.23;6.95;;;6.60;1.00;;;;;;4999859;28;20247;-83
2022/02/15 03:24:15;;;;;;;9.25;6.75;;;6.60;1.00;;;;;;5000714;28;20197;-84
2022/02/15 03:26:43;;;;;;;9.55;6.93;;;6.60;1.00;;;;;;5002917;28;20209;-84
2022/02/15 03:29:11;;;;;;;14.70;6.95;;;6.60;1.00;;;;;;5019153;28;20201;-81
2022/02/15 03:31:39;;;;;;;13.43;7.13;;;6.60;1.00;;;;;;5019046;28;20280;-82
2022/02/15 03:34:05;;;;;;;8.45;6.43;;;6.50;1.00;;;;;;5017608;28;20209;-82
2022/02/15 03:36:32;;;;;;;10.38;7.15;;;6.40;1.00;;;;;;5000729;28;20204;-83
2022/02/15 03:38:58;;;;;;;8.73;6.72;;;6.40;1.00;;;;;;5000400;28;20217;-83
2022/02/15 03:44:10;;;;;;;7.97;6.20;;;6.40;1.00;;;;;;5000124;28;20184;-83
2022/02/15 03:46:36;;;;;;;13.02;7.43;;;6.30;1.00;;;;;;5000506;28;20240;-83
2022/02/15 03:49:10;;;;;;;8.70;6.28;;;6.30;16.00;;;;;;5001779;28;20208;-82
2022/02/15 03:51:37;;;;;;;7.40;6.28;;;6.30;29.10;;;;;;5007345;28;20228;-83
2022/02/15 03:54:04;;;;;;;7.88;6.25;;;6.20;28.70;;;;;;5003069;28;20280;-82
2022/02/15 03:56:31;;;;;;;8.45;6.88;;;6.20;48.10;;;;;;5000885;28;20205;-82
2022/02/15 03:58:57;;;;;;;8.13;6.32;;;6.20;26.70;;;;;;5000892;28;20232;-82
2022/02/15 04:01:24;;;;;;;7.45;5.95;;;6.20;39.60;;;;;;5005656;28;20232;-81
2022/02/15 04:03:51;;;;;;;9.02;6.22;;;6.20;57.90;;;;;;4997126;28;20256;-82
2022/02/15 04:06:19;;;;;;;7.88;6.45;;;6.10;57.40;;;;;;4997056;28;20251;-82
2022/02/15 04:08:47;;;;;;;7.63;6.80;;;6.20;70.40;;;;;;4998071;28;20582;-82
2022/02/15 04:11:14;;;;;;;11.00;6.38;;;6.20;78.50;;;;;;4998659;28;20224;-82
2022/02/15 04:13:41;;;;;;;7.50;6.80;;;6.10;95.90;;;;;;5001186;28;20562;-82
2022/02/15 04:16:10;;;;;;;9.73;5.72;;;6.10;78.80;;;;;;5002452;28;20660;-82
2022/02/15 04:18:38;;;;;;;9.75;6.65;;;6.10;90.80;;;;;;5000531;28;20209;-82
2022/02/15 04:21:05;;;;;;;6.72;6.00;;;6.10;99.90;;;;;;5000299;28;20530;-83
2022/02/15 04:23:33;;;;;;;7.90;6.22;;;6.00;99.90;;;;;;4999447;28;20197;-82
2022/02/15 04:25:59;;;;;;;8.90;7.03;;;6.00;99.90;;;;;;5000151;28;20240;-82
2022/02/15 04:28:26;;;;;;;12.45;7.13;;;6.00;99.90;;;;;;5000451;28;20244;-83
2022/02/15 04:30:53;;;;;;;10.50;7.25;;;5.90;99.90;;;;;;5000006;28;20224;-82
2022/02/15 04:33:20;;;;;;;8.25;6.25;;;6.00;99.90;;;;;;4999391;28;20217;-82
2022/02/15 04:35:47;;;;;;;10.23;7.88;;;5.90;99.90;;;;;;5001036;28;20205;-82
2022/02/15 04:38:14;;;;;;;9.73;6.63;;;5.70;99.90;;;;;;5001564;28;20559;-82
2022/02/15 04:40:42;;;;;;;8.40;6.82;;;6.00;99.90;;;;;;5003186;28;20229;-82
2022/02/15 04:43:08;;;;;;;13.32;7.40;;;6.00;99.90;;;;;;5000938;28;20209;-83
2022/02/15 04:45:35;;;;;;;9.15;7.20;;;6.00;99.90;;;;;;5000869;28;20205;-82
2022/02/15 04:48:01;;;;;;;15.52;7.50;;;6.10;99.90;;;;;;4999937;28;20201;-83
2022/02/15 04:50:28;;;;;;;9.05;7.13;;;6.00;99.90;;;;;;5000199;28;20260;-83
2022/02/15 04:52:55;;;;;;;16.20;7.32;;;6.00;99.90;;;;;;4999910;28;20240;-83
2022/02/15 04:55:21;;;;;;;11.43;7.25;;;6.00;99.90;;;;;;5000301;28;20228;-83
2022/02/15 04:57:49;;;;;;;7.85;7.05;;;6.00;99.90;;;;;;5001729;28;20205;-83
2022/02/15 05:00:17;;;;;;;14.30;8.23;;;6.00;99.90;;;;;;5000955;28;20272;-82
2022/02/15 05:02:44;;;;;;;14.15;7.68;;;6.00;99.90;;;;;;5000235;28;20230;-81
2022/02/15 05:05:10;;;;;;;10.07;7.32;;;6.00;99.90;;;;;;5000092;28;20209;-83
2022/02/15 05:07:37;;;;;;;10.18;7.18;;;6.00;99.90;;;;;;4999894;28;20625;-82
2022/02/15 05:10:04;;;;;;;9.68;6.68;;;5.80;99.90;;;;;;4999778;28;20233;-82
2022/02/15 05:12:32;;;;;;;10.35;8.57;;;5.90;99.90;;;;;;4998706;28;20193;-83
2022/02/15 05:15:00;;;;;;;13.77;8.40;;;5.90;99.90;;;;;;5000224;28;20266;-83
2022/02/15 05:17:27;;;;;;;12.70;9.15;;;6.00;99.90;;;;;;5000098;28;20734;-82
2022/02/15 05:19:54;;;;;;;10.07;7.70;;;6.00;99.90;;;;;;5000125;28;20225;-82
2022/02/15 05:22:21;;;;;;;11.38;9.20;;;6.00;99.90;;;;;;4998610;28;20616;-83
2022/02/15 05:24:47;;;;;;;9.75;7.22;;;6.00;99.90;;;;;;4999237;28;20200;-82
2022/02/15 05:27:15;;;;;;;14.77;7.85;;;6.00;99.90;;;;;;5004680;28;20231;-83
2022/02/15 05:29:43;;;;;;;8.68;7.20;;;5.90;99.90;;;;;;5014992;28;20224;-81
2022/02/15 05:32:12;;;;;;;10.02;7.13;;;5.90;99.90;;;;;;5017959;28;20201;-81
2022/02/15 05:34:42;;;;;;;8.38;7.10;;;5.90;99.90;;;;;;5017156;28;20212;-82
2022/02/15 05:37:08;;;;;;;10.93;6.75;;;5.90;99.90;;;;;;5009173;28;20205;-83
2022/02/15 05:39:35;;;;;;;8.73;7.13;;;6.00;99.90;;;;;;5004127;28;20205;-83
2022/02/15 05:42:02;;;;;;;8.85;7.38;;;6.00;99.90;;;;;;4999517;28;20244;-83
2022/02/15 05:44:28;;;;;;;7.32;6.63;;;6.00;99.90;;;;;;4999883;28;20209;-83
2022/02/15 05:46:55;;;;;;;10.20;7.28;;;6.20;99.90;;;;;;4999393;28;20232;-83
2022/02/15 05:49:23;;;;;;;9.75;6.85;;;6.20;99.90;;;;;;4998819;28;20524;-81
2022/02/15 05:51:50;;;;;;;10.52;6.40;;;6.20;99.90;;;;;;4998869;28;20642;-83
2022/02/15 05:54:16;;;;;;;13.25;6.75;;;6.10;99.90;;;;;;5009537;28;20213;-82
2022/02/15 05:56:43;;;;;;;9.93;7.50;;;6.10;99.90;;;;;;5016010;28;20197;-82
2022/02/15 05:59:13;;;;;;;11.65;7.75;;;6.10;99.90;;;;;;5017841;28;20212;-82
2022/02/15 06:01:39;;;;;;;7.90;7.10;;;6.10;99.90;;;;;;5017787;28;20213;-82
2022/02/15 06:04:12;;;;;;;7.97;6.55;;;6.10;99.90;;;;;;5017707;28;20193;-83
2022/02/15 06:06:40;;;;;;;9.25;7.00;;;6.10;99.90;;;;;;5017764;28;20189;-82
2022/02/15 06:09:08;;;;;;;11.00;6.65;;;6.10;99.90;;;;;;5017291;28;20323;-82
2022/02/15 06:11:35;;;;;;;13.75;7.07;;;6.10;99.90;;;;;;5010076;28;20221;-83
2022/02/15 06:14:01;;;;;;;14.25;7.10;;;6.10;99.90;;;;;;5005159;28;20700;-82
2022/02/15 06:16:28;;;;;;;8.13;6.43;;;6.10;99.90;;;;;;5004669;28;20212;-82
2022/02/15 06:18:56;;;;;;;10.55;6.80;;;6.40;99.90;;;;;;5004155;28;20217;-82
2022/02/15 06:21:23;;;;;;;7.30;5.80;;;6.10;99.90;;;;;;5003351;28;20225;-82
2022/02/15 06:23:51;;;;;;;9.98;6.28;;;6.10;99.90;;;;;;5002474;28;20205;-82
2022/02/15 06:26:17;;;;;;;7.53;6.35;;;6.10;99.90;;;;;;5002532;28;20649;-83
2022/02/15 06:28:44;;;;;;;9.10;6.13;;;6.10;99.90;;;;;;5002094;28;20204;-83
2022/02/15 06:31:42;;;;;;;9.10;7.18;;;6.10;99.90;;;;;;5004803;28;20777;-85
2022/02/15 06:34:08;;;;;;;7.88;6.07;;;6.10;99.90;;;;;;5006714;28;20229;-83
2022/02/15 06:36:35;;;;;;;8.65;7.57;;;6.00;99.90;;;;;;5002748;28;20197;-83
2022/02/15 06:39:09;;;;;;;11.57;6.03;;;6.10;99.90;;;;;;5003813;28;20216;-83
2022/02/15 06:41:36;;;;;;;8.75;6.22;;;6.10;99.90;;;;;;5005150;28;20563;-83
2022/02/15 06:44:02;;;;;;;15.65;6.38;;;6.10;99.90;;;;;;5009533;28;20209;-83
2022/02/15 06:46:29;;;;;;;14.48;7.05;;;6.10;99.90;;;;;;5003260;28;20237;-83
2022/02/15 06:48:55;;;;;;;7.68;6.57;;;6.20;99.90;;;;;;5006963;28;20229;-82
2022/02/15 06:51:22;;;;;;;7.57;5.50;;;6.30;99.90;;;;;;5004947;28;20225;-83
2022/02/15 06:53:49;;;;;;;7.60;5.40;;;6.20;99.90;;;;;;5015072;28;20204;-80
2022/02/15 06:56:20;;;;;;;12.07;6.20;;;6.20;99.90;;;;;;5017956;28;20197;-82
2022/02/15 06:58:47;;;;;;;10.93;5.50;;;6.20;99.90;;;;;;5019181;28;20189;-81
2022/02/15 07:01:13;;;;;;;9.27;6.57;;;6.20;99.90;;;;;;5017920;28;20264;-80
2022/02/15 07:03:40;;;;;;;6.43;5.22;;;6.20;99.90;;;;;;5017867;28;20236;-82
2022/02/15 07:06:08;;;;;;;7.82;6.95;;;6.20;99.90;;;;;;5018488;28;20197;-81
2022/02/15 07:08:34;;;;;;;6.78;6.18;;;6.30;99.90;;;;;;5019364;28;20266;-81
2022/02/15 07:11:03;;;;;;;7.43;5.95;;;6.30;99.90;;;;;;5019276;28;20291;-83
2022/02/15 07:13:31;;;;;;;6.18;5.53;;;6.30;99.90;;;;;;5019459;28;20201;-82
2022/02/15 07:15:57;;;;;;;7.00;6.10;;;6.30;99.90;;;;;;5019391;28;20240;-82
2022/02/15 07:18:26;;;;;;;8.00;6.65;;;6.30;99.90;;;;;;5019269;28;20177;-81
2022/02/15 07:20:52;;;;;;;6.45;5.65;;;6.30;99.90;;;;;;5018849;28;20289;-82
2022/02/15 07:23:19;;;;;;;10.25;6.03;;;6.30;99.90;;;;;;5018757;28;20272;-82
2022/02/15 07:25:45;;;;;;;6.85;6.15;;;6.30;99.90;;;;;;5018491;28;20197;-82
2022/02/15 07:28:12;;;;;;;11.65;5.85;;;6.30;99.90;;;;;;5018212;28;20201;-82
2022/02/15 07:30:40;;;;;;;9.88;6.35;;;6.40;99.90;;;;;;5018735;28;20212;-82
2022/02/15 07:33:06;;;;;;;9.88;5.28;;;6.30;99.90;;;;;;5018363;28;20219;-82
2022/02/15 07:35:34;;;;;;;6.25;5.50;;;6.30;99.90;;;;;;5015513;28;20244;-82
2022/02/15 07:38:01;;;;;;;13.68;6.60;;;6.30;99.90;;;;;;5014949;28;20213;-82
2022/02/15 07:40:28;;;;;;;10.82;6.50;;;6.30;99.90;;;;;;5017697;28;20213;-82
2022/02/15 07:42:55;;;;;;;11.23;6.07;;;6.30;99.90;;;;;;5017264;28;20189;-80
2022/02/15 07:45:22;;;;;;;9.52;6.28;;;6.30;99.90;;;;;;5017410;28;20209;-80
2022/02/15 07:47:51;;;;;;;9.38;6.63;;;6.30;99.90;;;;;;5018175;28;20205;-81
2022/02/15 07:50:20;;;;;;;8.85;6.57;;;6.40;99.90;;;;;;5018888;28;20220;-82
2022/02/15 07:52:50;;;;;;;8.35;6.32;;;6.30;99.90;;;;;;5017226;28;20195;-81
2022/02/15 07:55:17;;;;;;;12.95;5.97;;;6.40;99.90;;;;;;5017442;28;20281;-82
2022/02/15 07:57:44;;;;;;;10.10;6.13;;;6.20;99.90;;;;;;5018564;28;20189;-82
2022/02/15 08:00:13;;;;;;;10.50;6.15;;;6.40;99.90;;;;;;5017587;28;20260;-82
2022/02/15 08:02:39;;;;;;;9.00;6.05;;;6.30;99.90;;;;;;5017465;28;20209;-82
2022/02/15 08:05:08;;;;;;;8.57;5.93;;;6.40;99.90;;;;;;5017921;28;20192;-81
2022/02/15 08:07:36;;;;;;;9.63;5.57;;;6.40;99.90;;;;;;5017602;28;20201;-82
2022/02/15 08:10:04;;;;;;;8.32;6.45;;;6.40;99.90;;;;;;5010608;28;20252;-82
2022/02/15 08:12:30;;;;;;;11.95;6.60;;;6.40;99.90;;;;;;5015719;28;20240;-82
2022/02/15 08:14:57;;;;;;;11.07;5.95;;;6.50;99.90;;;;;;5017193;28;20240;-82
2022/02/15 08:17:24;;;;;;;13.63;5.78;;;6.60;99.90;;;;;;5017466;28;20209;-82
2022/02/15 08:19:50;;;;;;;7.53;5.82;;;6.40;92.30;;;;;;5017117;28;20221;-82
2022/02/15 08:22:20;;;;;;;7.32;5.20;;;6.50;77.10;;;;;;5016980;28;20189;-82
2022/02/15 08:24:46;;;;;;;7.50;6.30;;;6.60;76.20;;;;;;5016837;28;20268;-81
2022/02/15 08:27:16;;;;;;;7.85;5.78;;;6.70;34.40;;;;;;5016682;28;20224;-82
2022/02/15 08:29:44;;;;;;;6.38;5.72;;;6.80;1.00;;;;;;5016934;28;20259;-82
2022/02/15 08:32:11;;;;;;;7.60;5.43;;;7.00;1.00;;;;;;5014856;28;20203;-82
2022/02/15 08:34:39;;;;;;;8.70;5.22;;;7.00;1.00;;;;;;5007681;28;20660;-82
2022/02/15 08:37:05;;;;;;;7.40;4.93;;;7.10;1.00;;;;;;5016301;28;20222;-81
2022/02/15 08:39:33;;;;;;;9.68;5.10;;;6.70;1.00;;;;;;5016556;28;20209;-80
2022/02/15 08:42:04;;;;;;;6.45;4.78;;;7.10;1.00;;;;;;5016874;28;20201;-83
2022/02/15 08:44:31;;;;;;;8.00;4.80;;;7.20;1.00;;;;;;5017288;28;20177;-82
2022/02/15 08:46:58;;;;;;;4.93;4.05;;;7.20;1.00;;;;;;5017009;28;20193;-82
2022/02/15 08:49:24;;;;;;;5.20;4.70;;;7.30;1.00;;;;;;5016159;28;20264;-82
2022/02/15 08:51:51;;;;;;;7.22;4.47;;;7.30;1.00;;;;;;5016175;28;20209;-83
2022/02/15 08:54:18;;;;;;;9.93;5.65;;;7.40;1.00;;;;;;5016163;28;20225;-82
2022/02/15 08:56:46;;;;;;;8.27;4.85;;;7.40;1.00;;;;;;5015980;28;20186;-80
2022/02/15 08:59:12;;;;;;;7.32;5.15;;;7.50;99.90;;;;;;5016841;28;20193;-82
2022/02/15 09:01:39;;;;;;;8.15;4.90;;;7.60;99.90;;;;;;5016436;28;20252;-82
2022/02/15 09:04:06;;;;;;;7.88;4.10;;;7.70;99.90;;;;;;5014824;28;20205;-82
2022/02/15 09:06:34;;;;;;;7.55;4.63;;;7.70;1.00;;;;;;5016748;28;20193;-81
2022/02/15 09:09:01;;;;;;;6.20;4.25;;;7.80;99.90;;;;;;5018042;28;20208;-82
2022/02/15 09:11:27;;;;;;;5.07;4.53;;;7.90;1.00;;;;;;5017836;28;20232;-82
2022/02/15 09:13:55;;;;;;;11.90;5.10;;;7.80;1.00;;;;;;5014672;28;20205;-81
2022/02/15 09:16:22;;;;;;;6.63;4.73;;;7.90;1.00;;;;;;5012661;28;20229;-82
2022/02/15 09:18:48;;;;;;;9.40;4.83;;;7.90;99.90;;;;;;5013305;28;20399;-81
2022/02/15 09:21:16;;;;;;;5.50;4.27;;;7.90;99.90;;;;;;5012851;28;20464;-82
2022/02/15 09:23:43;;;;;;;10.13;4.97;;;8.20;99.90;;;;;;5013221;28;20428;-81
2022/02/15 09:26:09;;;;;;;9.45;5.78;;;7.90;99.90;;;;;;5012642;28;20436;-82
2022/02/15 09:28:36;;;;;;;9.93;5.60;;;8.00;43.20;;;;;;5012561;28;20537;-82
2022/02/15 09:31:05;;;;;;;8.77;4.85;;;8.10;1.00;;;;;;5010697;28;20465;-83
2022/02/15 09:33:31;;;;;;;5.70;4.03;;;8.20;1.00;;;;;;5010500;28;20248;-81
2022/02/15 09:35:58;;;;;;;11.03;5.70;;;8.20;1.00;;;;;;5011130;28;20490;-82
2022/02/15 09:38:25;;;;;;;7.93;4.93;;;8.30;1.00;;;;;;5010770;28;20448;-82
2022/02/15 09:40:51;;;;;;;12.17;5.90;;;8.40;99.90;;;;;;5002929;28;20442;-82
2022/02/15 09:43:20;;;;;;;6.20;4.40;;;8.40;99.90;;;;;;5002239;28;20924;-83
2022/02/15 09:45:48;;;;;;;5.60;4.87;;;8.50;1.00;;;;;;5000849;28;20416;-82
2022/02/15 09:48:18;;;;;;;6.73;4.23;;;8.60;1.00;;;;;;4999744;28;20865;-83
2022/02/15 09:50:45;;;;;;;12.07;5.23;;;8.80;1.00;;;;;;5001800;28;20471;-84
2022/02/15 09:53:12;;;;;;;6.10;5.37;;;8.90;1.00;;;;;;5004315;28;20452;-82
2022/02/15 09:55:39;;;;;;;10.30;5.30;;;9.00;1.00;;;;;;5002458;28;20786;-83
2022/02/15 09:58:05;;;;;;;8.00;4.10;;;9.10;99.90;;;;;;5002435;28;20474;-82
2022/02/15 10:00:32;;;;;;;5.90;4.23;;;9.20;1.00;;;;;;5003463;28;20962;-82
2022/02/15 10:03:00;;;;;;;7.13;4.57;;;9.30;1.00;;;;;;5012309;28;20454;-79
2022/02/15 10:05:33;;;;;;;5.57;4.33;;;9.40;1.00;;;;;;5012640;28;20471;-80
2022/02/15 10:08:00;;;;;;;10.30;5.63;;;9.50;1.00;;;;;;5004578;28;20409;-79
2022/02/15 10:10:31;;;;;;;6.83;3.93;;;9.60;1.00;;;;;;5007155;28;20472;-78
2022/02/15 10:13:03;;;;;;;7.23;4.97;;;9.70;1.00;;;;;;5007323;28;20433;-80
2022/02/15 10:15:34;;;;;;;4.80;4.40;;;9.70;99.90;;;;;;5006894;28;20541;-80
2022/02/15 10:18:06;;;;;;;7.23;5.27;;;9.60;99.90;;;;;;5009142;28;20412;-80
2022/02/15 10:20:34;;;;;;;6.20;5.60;;;9.50;99.90;;;;;;5001653;28;20580;-81
2022/02/15 10:23:14;;;;;;;8.17;4.80;;;9.60;1.00;;;;;;5000394;28;20516;-81
2022/02/15 10:25:41;;;;;;;6.80;4.73;;;9.50;1.00;;;;;;5000771;28;20451;-80
2022/02/15 10:28:12;;;;;;;6.13;5.53;;;9.60;1.00;;;;;;4999938;28;20494;-79
2022/02/15 10:30:43;;;;;;;17.37;6.13;;;9.60;1.00;;;;;;4999807;28;20576;-79
2022/02/15 10:33:10;;;;;;;10.07;6.37;;;9.60;1.00;;;;;;5002497;28;20466;-80
2022/02/15 10:35:40;;;;;;;9.00;6.40;;;9.50;1.00;;;;;;5000581;28;20534;-80
2022/02/15 10:38:09;;;;;;;7.07;6.10;;;9.50;1.00;;;;;;5004482;28;20535;-80
2022/02/15 10:40:35;;;;;;;6.63;5.90;;;9.60;1.00;;;;;;5004653;28;20529;-80
2022/02/15 10:43:02;;;;;;;8.87;6.70;;;9.60;1.00;;;;;;5002803;28;20454;-79
2022/02/15 10:45:28;;;;;;;8.93;6.90;;;9.50;1.00;;;;;;5005470;28;20446;-82
2022/02/15 10:47:56;;;;;;;8.10;6.27;;;9.40;1.00;;;;;;5005789;28;20447;-81
2022/02/15 10:50:23;;;;;;;9.03;6.33;;;9.50;1.00;;;;;;5007079;28;20772;-81
2022/02/15 10:52:52;;;;;;;8.53;6.80;;;9.50;1.00;;;;;;5009565;28;20451;-80
2022/02/15 10:55:19;;;;;;;9.70;6.67;;;9.40;1.00;;;;;;5018984;28;20536;-80
2022/02/15 10:57:46;;;;;;;9.10;6.67;;;9.60;1.00;;;;;;5019126;28;20436;-82
2022/02/15 11:33:51;;;;;;;6.27;5.77;;;10.10;1.00;;;;;;5032313;28;20437;-85
2022/02/15 11:40:34;;;;;;;6.67;4.53;;;9.90;99.90;;;;;;4983876;28;20438;-85
2022/02/15 11:43:04;;;;;;;5.00;4.33;;;9.60;99.90;;;;;;5006216;22;20482;-83
2022/02/15 11:45:38;;;;;;;5.37;4.27;;;10.10;99.90;;;;;;5024259;28;20514;-82
2022/02/15 11:48:07;;;;;;;5.63;5.03;;;10.10;99.90;;;;;;5022889;28;20442;-82
2022/02/15 11:50:51;;;;;;;6.90;4.80;;;10.30;99.90;;;;;;5023358;28;20469;-82
2022/02/15 11:53:20;;;;;;;5.00;4.50;;;10.20;99.90;;;;;;5021995;28;20467;-82
2022/02/15 11:55:49;;;;;;;6.73;5.10;;;10.00;73.40;;;;;;5023152;28;20532;-82
2022/02/15 11:58:16;;;;;;;7.60;4.30;;;10.00;88.40;;;;;;5023507;28;20465;-83
2022/02/15 12:00:44;;;;;;;6.30;4.83;;;9.80;57.30;;;;;;5022619;28;20458;-83
2022/02/15 12:03:16;;;;;;;6.33;4.63;;;9.80;53.00;;;;;;5023038;28;20473;-83
2022/02/15 12:05:45;;;;;;;5.17;4.67;;;9.80;38.60;;;;;;5022966;28;20438;-81
2022/02/15 12:08:13;;;;;;;6.27;4.40;;;9.80;27.70;;;;;;5022951;28;20472;-84
2022/02/15 12:10:42;;;;;;;4.50;4.10;;;9.90;13.60;;;;;;5023725;28;20463;-81
2022/02/15 12:13:15;;;;;;;4.37;3.93;;;10.00;1.00;;;;;;5023914;28;20497;-81
2022/02/15 12:15:46;;;;;;;4.70;4.17;;;10.00;1.00;;;;;;5020874;28;20476;-81
2022/02/15 12:18:12;;;;;;;6.40;3.80;;;9.90;1.00;;;;;;5027513;28;20441;-81
2022/02/15 12:20:40;;;;;;;4.67;3.73;;;10.00;1.00;;;;;;5030282;28;20454;-80
2022/02/15 12:23:07;;;;;;;4.13;3.67;;;9.70;1.00;;;;;;5029940;28;20493;-80
2022/02/15 12:25:44;;;;;;;5.60;4.13;;;9.90;1.00;;;;;;5030717;28;20459;-81
2022/02/15 12:28:11;;;;;;;4.23;3.73;;;9.90;1.00;;;;;;5031177;28;20425;-80
2022/02/15 12:30:43;;;;;;;4.73;3.63;;;10.00;1.00;;;;;;5029014;28;20929;-80
2022/02/15 12:33:11;;;;;;;4.30;3.90;;;10.00;1.00;;;;;;5030507;28;20468;-81
2022/02/15 12:35:38;;;;;;;5.60;3.93;;;10.00;1.00;;;;;;5022643;28;20471;-81
2022/02/15 12:38:05;;;;;;;4.20;3.90;;;10.00;1.00;;;;;;5021028;28;20425;-80
2022/02/15 12:40:32;;;;;;;4.57;4.17;;;9.90;1.00;;;;;;5021211;28;20819;-83
2022/02/15 12:42:59;;;;;;;4.63;4.20;;;9.90;1.00;;;;;;5021823;28;20483;-82
2022/02/15 12:45:28;;;;;;;6.73;3.67;;;9.90;1.00;;;;;;5022146;28;20489;-81
2022/02/15 12:47:54;;;;;;;3.93;3.63;;;10.10;99.90;;;;;;5023376;28;20481;-81
2022/02/15 12:50:23;;;;;;;3.40;3.10;;;10.00;1.00;;;;;;5030655;28;20478;-83
2022/02/15 12:52:49;;;;;;;3.17;2.77;;;10.10;1.00;;;;;;5033835;28;20466;-83
2022/02/15 12:55:21;;;;;;;3.53;3.10;;;10.00;1.00;;;;;;5033278;28;20458;-80
2022/02/15 12:57:49;;;;;;;3.03;2.80;;;10.00;1.00;;;;;;5033119;28;20453;-82
2022/02/15 13:00:17;;;;;;;7.37;3.90;;;10.10;1.00;;;;;;5025875;28;20450;-83
2022/02/15 13:02:47;;;;;;;4.43;3.83;;;10.20;1.00;;;;;;5027162;28;20471;-83
2022/02/15 13:05:13;;;;;;;6.70;3.60;;;10.30;1.00;;;;;;5027656;28;20479;-81
2022/02/15 13:07:49;;;;;;;4.17;3.77;;;10.20;1.00;;;;;;5025550;28;20440;-81
2022/02/15 13:10:21;;;;;;;3.60;3.30;;;10.20;1.00;;;;;;5021494;28;20452;-82
2022/02/15 13:12:48;;;;;;;3.67;3.20;;;10.10;86.50;;;;;;5022062;28;20477;-82
2022/02/15 13:15:18;;;;;;;7.77;4.10;;;10.10;1.00;;;;;;5021902;28;20929;-82
2022/02/15 13:17:46;;;;;;;5.40;3.90;;;10.10;1.00;;;;;;5024291;28;20486;-82
2022/02/15 13:20:17;;;;;;;4.00;3.27;;;10.10;1.00;;;;;;5025841;28;20492;-82
2022/02/15 13:22:45;;;;;;;4.27;3.70;;;10.00;1.00;;;;;;5030675;28;20477;-80
2022/02/15 13:25:14;;;;;;;4.33;3.77;;;10.00;1.00;;;;;;5023251;28;20472;-82
2022/02/15 13:27:41;;;;;;;4.30;4.00;;;10.00;1.00;;;;;;5026768;28;20443;-79
2022/02/15 13:30:24;;;;;;;4.53;3.90;;;9.70;99.90;;;;;;5025367;28;20416;-81
2022/02/15 13:33:03;;;;;;;5.20;3.90;;;10.00;1.00;;;;;;5024712;28;20471;-81
2022/02/15 13:35:30;;;;;;;4.90;4.00;;;10.00;1.00;;;;;;5023672;28;20476;-80
2022/02/15 13:37:58;;;;;;;4.90;3.87;;;10.00;1.00;;;;;;5023617;28;20530;-81
2022/02/15 13:40:27;;;;;;;9.33;5.00;;;10.00;1.00;;;;;;5026244;28;20453;-82
2022/02/15 13:42:55;;;;;;;4.10;3.80;;;10.00;1.00;;;;;;5023407;28;20481;-81